Time;durP1;ratioP1;P1;durP2;ratioP2;P2;SDS_P1;SDS_P2;PMS_P1;PMS_P2;Temp;Humidity;BMP_temperature;BMP_pressure;BME280_temperature;BME280_humidity;BME280_pressure;Samples;Min_cycle;Max_cycle;Signal;HPM_P1;HPM_P2
2021/05/05 00:00:29;;;;;;;9.95;1.80;;;;;;;9.70;58.86;100185.78;5050283;28;20063;-83
2021/05/05 00:02:59;;;;;;;9.60;1.90;;;;;;;9.56;60.07;100193.25;5037646;28;20379;-83
2021/05/05 00:05:25;;;;;;;4.22;1.50;;;;;;;9.53;60.47;100190.66;5037392;28;20500;-83
2021/05/05 00:07:52;;;;;;;13.73;1.95;;;;;;;9.43;60.98;100189.19;5037399;28;20488;-85
2021/05/05 00:10:19;;;;;;;12.75;1.60;;;;;;;9.46;61.56;100194.38;5037188;28;20116;-86
2021/05/05 00:12:46;;;;;;;12.35;2.63;;;;;;;9.67;60.88;100187.66;5040888;28;20032;-86
2021/05/05 00:15:22;;;;;;;18.88;3.00;;;;;;;9.67;61.02;100193.84;5035360;28;20021;-83
2021/05/05 00:17:50;;;;;;;6.85;2.03;;;;;;;9.62;61.74;100192.19;5037856;28;20496;-83
2021/05/05 00:20:18;;;;;;;11.68;2.25;;;;;;;9.52;62.37;100199.50;5037326;28;20017;-83
2021/05/05 00:22:44;;;;;;;14.23;2.97;;;;;;;9.46;63.63;100203.19;5034208;28;20108;-83
2021/05/05 00:25:11;;;;;;;11.85;2.45;;;;;;;9.53;63.42;100202.13;5034217;28;20071;-82
2021/05/05 00:27:38;;;;;;;9.57;2.00;;;;;;;9.51;64.15;100192.50;5037294;28;20029;-83
2021/05/05 00:30:08;;;;;;;14.15;2.53;;;;;;;9.34;65.05;100196.44;5036352;28;20029;-84
2021/05/05 00:32:35;;;;;;;11.05;2.70;;;;;;;9.29;64.90;100193.03;5037635;28;20068;-84
2021/05/05 00:35:02;;;;;;;19.48;3.45;;;;;;;9.17;66.26;100196.88;5035387;28;20033;-85
2021/05/05 00:37:28;;;;;;;13.00;2.97;;;;;;;9.32;65.14;100186.81;5038431;28;20480;-85
2021/05/05 00:39:56;;;;;;;13.82;3.15;;;;;;;9.38;64.76;100187.53;5033698;28;20116;-85
2021/05/05 00:42:23;;;;;;;11.95;2.55;;;;;;;9.25;65.82;100186.09;5033926;28;20029;-85
2021/05/05 00:44:55;;;;;;;13.02;3.13;;;;;;;9.33;65.64;100183.25;5035082;28;20030;-85
2021/05/05 00:47:24;;;;;;;10.45;2.38;;;;;;;9.48;65.32;100187.28;5033413;28;20087;-85
2021/05/05 00:49:51;;;;;;;15.32;2.97;;;;;;;9.44;65.41;100197.06;5033725;28;20034;-85
2021/05/05 00:52:17;;;;;;;13.00;2.85;;;;;;;9.29;66.04;100189.53;5033639;28;20065;-85
2021/05/05 00:54:44;;;;;;;11.48;3.53;;;;;;;9.34;65.70;100199.06;5033669;28;20116;-85
2021/05/05 00:57:12;;;;;;;10.45;2.83;;;;;;;9.54;64.63;100198.59;5033661;28;20417;-85
2021/05/05 00:59:39;;;;;;;11.70;2.47;;;;;;;9.38;65.54;100208.69;5033676;28;20017;-85
2021/05/05 01:02:07;;;;;;;9.50;1.98;;;;;;;8.90;66.39;100244.16;5038872;28;20100;-86
2021/05/05 01:04:33;;;;;;;6.22;1.25;;;;;;;8.73;65.40;100209.34;5033871;28;20052;-87
2021/05/05 01:07:00;;;;;;;10.40;1.73;;;;;;;8.85;65.19;100195.84;5033340;28;20025;-86
2021/05/05 01:09:27;;;;;;;9.68;1.65;;;;;;;8.62;64.92;100201.66;5046129;28;20041;-87
2021/05/05 01:11:54;;;;;;;7.38;1.90;;;;;;;8.41;65.76;100202.97;5033594;28;20061;-86
2021/05/05 01:14:22;;;;;;;9.40;2.35;;;;;;;8.38;65.70;100198.63;5035115;28;20083;-86
2021/05/05 01:16:51;;;;;;;7.55;2.85;;;;;;;8.21;66.14;100195.47;5040763;28;20033;-85
2021/05/05 01:19:19;;;;;;;12.98;2.40;;;;;;;8.12;66.77;100199.16;5033215;28;20104;-86
2021/05/05 01:21:46;;;;;;;17.55;3.08;;;;;;;8.14;67.32;100184.19;5033316;28;20032;-85
2021/05/05 01:24:13;;;;;;;10.70;2.88;;;;;;;8.32;66.98;100188.19;5035952;28;20028;-86
2021/05/05 01:26:40;;;;;;;9.27;2.60;;;;;;;8.29;67.58;100188.25;5033297;28;20030;-85
2021/05/05 01:29:09;;;;;;;11.82;3.65;;;;;;;8.35;67.57;100182.84;5038344;28;20023;-85
2021/05/05 01:31:36;;;;;;;14.80;4.00;;;;;;;8.48;67.50;100183.47;5035461;28;20029;-85
2021/05/05 01:34:03;;;;;;;13.15;3.25;;;;;;;8.54;67.81;100182.50;5034826;28;20029;-85
2021/05/05 01:36:36;;;;;;;20.80;5.43;;;;;;;8.50;68.34;100192.25;5032732;28;20036;-85
2021/05/05 01:39:09;;;;;;;;;;;;;;;8.58;68.19;100189.44;5033488;28;20037;-85
2021/05/05 01:41:35;;;;;;;;;;;;;;;8.70;68.27;100194.44;5033267;28;19974;-85
2021/05/05 01:44:02;;;;;;;13.30;4.70;;;;;;;8.61;67.80;100186.75;5035489;28;19921;-84
2021/05/05 01:46:28;;;;;;;16.40;4.40;;;;;;;8.74;67.20;100182.03;5032846;28;20030;-86
2021/05/05 01:48:58;;;;;;;17.50;3.85;;;;;;;8.61;67.44;100194.66;5032981;28;20032;-86
2021/05/05 01:51:25;;;;;;;19.27;4.07;;;;;;;8.68;67.42;100185.66;5032519;28;20025;-85
2021/05/05 01:53:51;;;;;;;12.60;3.97;;;;;;;8.51;67.56;100201.91;5034879;28;20041;-85
2021/05/05 01:56:18;;;;;;;19.65;5.20;;;;;;;8.57;67.86;100188.56;5032666;28;20155;-85
2021/05/05 01:58:45;;;;;;;19.83;4.97;;;;;;;8.69;67.16;100186.56;5035556;28;20051;-84
2021/05/05 02:01:11;;;;;;;15.80;2.85;;;;;;;8.64;66.36;100194.56;5032769;28;20373;-85
2021/05/05 02:03:38;;;;;;;17.92;3.75;;;;;;;8.58;67.38;100194.72;5032539;28;20025;-84
2021/05/05 02:06:04;;;;;;;17.60;3.22;;;;;;;8.66;66.66;100189.25;5032285;28;20029;-84
2021/05/05 02:08:31;;;;;;;17.35;4.18;;;;;;;8.65;66.54;100188.41;5032432;28;20053;-84
2021/05/05 02:10:58;;;;;;;13.98;2.65;;;;;;;8.45;67.26;100182.66;5034649;28;20111;-85
2021/05/05 02:13:25;;;;;;;19.15;3.70;;;;;;;8.36;67.27;100184.59;5030973;28;20477;-85
2021/05/05 02:15:51;;;;;;;14.63;3.45;;;;;;;8.24;67.72;100193.63;5035000;28;20167;-85
2021/05/05 02:18:18;;;;;;;17.40;3.97;;;;;;;8.34;67.70;100186.41;5034244;28;20025;-86
2021/05/05 02:20:44;;;;;;;20.08;3.72;;;;;;;8.28;67.98;100193.59;5034355;28;20492;-85
2021/05/05 02:23:11;;;;;;;19.90;3.83;;;;;;;8.46;67.75;100185.31;5034692;28;20033;-86
2021/05/05 02:25:37;;;;;;;14.93;3.53;;;;;;;8.04;68.48;100195.81;5031892;28;20037;-85
2021/05/05 02:28:04;;;;;;;23.92;3.22;;;;;;;8.10;67.67;100204.47;5032023;28;20033;-83
2021/05/05 02:30:31;;;;;;;12.70;2.80;;;;;;;8.17;67.10;100199.06;5032309;28;20060;-86
2021/05/05 02:32:57;;;;;;;15.07;3.22;;;;;;;8.01;67.47;100203.78;5032108;28;20017;-85
2021/05/05 02:35:25;;;;;;;10.38;2.00;;;;;;;8.04;67.10;100204.59;5032358;28;20468;-85
2021/05/05 02:37:51;;;;;;;18.20;3.10;;;;;;;8.25;66.79;100191.88;5031713;28;20021;-85
2021/05/05 02:40:18;;;;;;;10.10;2.45;;;;;;;8.36;65.33;100187.25;5032086;28;20026;-86
2021/05/05 02:42:45;;;;;;;11.95;2.50;;;;;;;8.42;65.33;100187.13;5031976;28;20392;-84
2021/05/05 02:45:12;;;;;;;16.10;3.30;;;;;;;8.13;66.33;100208.81;5031864;28;20053;-85
2021/05/05 02:47:38;;;;;;;16.85;4.63;;;;;;;7.99;66.74;100195.91;5034846;28;20021;-86
2021/05/05 02:50:06;;;;;;;19.80;3.58;;;;;;;7.98;67.00;100207.34;5031673;28;20373;-85
2021/05/05 02:52:35;;;;;;;19.42;3.63;;;;;;;8.05;67.29;100190.50;5031969;28;20017;-84
2021/05/05 02:55:03;;;;;;;19.48;3.70;;;;;;;8.05;67.46;100187.88;5034739;28;20033;-84
2021/05/05 02:57:30;;;;;;;14.65;2.75;;;;;;;8.12;67.21;100193.88;5031960;28;20056;-84
2021/05/05 02:59:56;;;;;;;25.23;3.80;;;;;;;8.13;67.20;100194.78;5032134;28;20021;-84
2021/05/05 03:02:23;;;;;;;10.63;3.00;;;;;;;8.17;67.34;100188.53;5031751;28;20034;-85
2021/05/05 03:04:51;;;;;;;16.83;3.88;;;;;;;8.07;67.30;100199.28;5031741;28;20381;-86
2021/05/05 03:07:18;;;;;;;14.68;4.85;;;;;;;8.17;67.66;100191.16;5031916;28;20036;-85
2021/05/05 03:09:44;;;;;;;18.20;3.60;;;;;;;8.26;67.44;100191.84;5034062;28;20090;-86
2021/05/05 03:12:11;;;;;;;11.43;3.20;;;;;;;8.36;67.41;100192.53;5032090;28;20085;-84
2021/05/05 03:14:40;;;;;;;15.95;3.30;;;;;;;8.21;67.73;100203.38;5031726;28;20370;-86
2021/05/05 03:17:07;;;;;;;19.75;4.22;;;;;;;8.35;67.27;100193.41;5036431;28;20040;-82
2021/05/05 03:19:33;;;;;;;13.95;3.13;;;;;;;8.42;67.02;100195.03;5049936;23;20859;-81
2021/05/05 03:22:00;;;;;;;9.25;3.17;;;;;;;8.26;67.38;100205.03;5062817;28;20042;-82
2021/05/05 03:24:27;;;;;;;13.55;2.92;;;;;;;8.30;66.42;100228.72;5068458;28;20044;-84
2021/05/05 03:26:53;;;;;;;11.70;2.38;;;;;;;8.25;65.48;100215.63;5061967;28;20055;-82
2021/05/05 03:29:20;;;;;;;6.03;2.35;;;;;;;8.59;64.68;100212.31;5069423;28;20107;-84
2021/05/05 03:31:46;;;;;;;11.02;2.90;;;;;;;8.29;65.07;100206.75;5064582;28;20067;-83
2021/05/05 03:34:12;;;;;;;7.97;2.83;;;;;;;8.31;65.75;100202.31;5062618;28;20456;-81
2021/05/05 03:36:39;;;;;;;10.57;2.33;;;;;;;8.00;66.04;100213.47;5059631;28;20082;-82
2021/05/05 03:39:06;;;;;;;11.00;2.88;;;;;;;8.12;66.50;100224.69;5070260;28;20060;-82
2021/05/05 03:41:33;;;;;;;10.85;2.55;;;;;;;8.10;66.19;100215.03;5068458;28;20094;-82
2021/05/05 03:43:59;;;;;;;9.52;3.28;;;;;;;8.26;65.80;100220.88;5067587;28;20120;-82
2021/05/05 03:46:26;;;;;;;12.55;3.28;;;;;;;8.15;65.82;100209.66;5069813;28;20028;-83
2021/05/05 03:48:52;;;;;;;19.60;4.10;;;;;;;7.85;67.56;100219.03;5068838;28;20467;-83
2021/05/05 03:51:19;;;;;;;9.20;2.92;;;;;;;7.69;67.77;100224.59;5072103;28;20050;-83
2021/05/05 03:53:45;;;;;;;10.55;2.83;;;;;;;7.71;68.33;100228.09;5068914;28;20025;-83
2021/05/05 03:56:13;;;;;;;13.13;2.45;;;;;;;7.74;67.89;100233.28;5070143;28;20201;-83
2021/05/05 03:58:39;;;;;;;8.63;2.50;;;;;;;7.85;67.21;100224.31;5070929;28;20379;-83
2021/05/05 04:01:06;;;;;;;9.55;2.33;;;;;;;7.82;67.58;100224.38;5067456;28;20050;-82
2021/05/05 04:03:32;;;;;;;9.40;2.75;;;;;;;7.86;67.64;100231.31;5070699;28;20039;-82
2021/05/05 04:05:58;;;;;;;15.15;4.40;;;;;;;7.96;67.35;100227.59;5067227;28;20033;-82
2021/05/05 04:08:24;;;;;;;14.30;3.10;;;;;;;7.84;67.64;100238.38;5069634;28;20032;-83
2021/05/05 04:10:51;;;;;;;14.63;2.92;;;;;;;7.74;68.12;100254.41;5064714;28;20033;-83
2021/05/05 04:13:17;;;;;;;15.63;3.60;;;;;;;7.65;68.35;100253.69;5070217;28;20024;-83
2021/05/05 04:15:44;;;;;;;10.32;3.10;;;;;;;7.48;69.14;100256.59;5067226;28;20476;-83
2021/05/05 04:18:11;;;;;;;10.32;3.10;;;;;;;7.60;68.70;100256.38;5070094;28;20024;-82
2021/05/05 04:20:37;;;;;;;8.85;3.10;;;;;;;7.53;68.89;100241.59;5066806;28;20434;-82
2021/05/05 04:23:03;;;;;;;9.27;3.03;;;;;;;7.32;69.42;100241.03;5067632;28;20552;-82
2021/05/05 04:25:30;;;;;;;11.63;3.70;;;;;;;7.56;68.47;100249.44;5069220;28;20040;-82
2021/05/05 04:27:57;;;;;;;7.00;3.40;;;;;;;7.35;69.22;100235.75;5068168;28;20029;-82
2021/05/05 04:30:23;;;;;;;9.23;3.10;;;;;;;7.19;69.75;100242.13;5067557;28;20059;-82
2021/05/05 04:32:51;;;;;;;13.60;2.67;;;;;;;7.21;69.43;100253.53;5067657;28;20561;-82
2021/05/05 04:35:19;;;;;;;4.35;2.30;;;;;;;7.27;68.90;100254.28;5066795;28;20104;-82
2021/05/05 04:37:46;;;;;;;5.15;2.05;;;;;;;7.19;69.38;100244.75;5067448;28;20020;-82
2021/05/05 04:40:13;;;;;;;8.30;2.72;;;;;;;7.32;69.35;100263.91;5069196;28;20391;-82
2021/05/05 04:42:39;;;;;;;9.02;2.38;;;;;;;7.11;69.89;100273.88;5069695;28;20024;-82
2021/05/05 04:45:07;;;;;;;7.05;2.05;;;;;;;7.33;69.54;100271.78;5066369;28;20033;-81
2021/05/05 04:47:35;;;;;;;10.02;2.40;;;;;;;7.38;68.88;100283.13;5062057;28;20033;-82
2021/05/05 04:50:05;;;;;;;12.45;2.80;;;;;;;7.12;69.62;100308.09;5065975;28;20037;-83
2021/05/05 04:52:31;;;;;;;5.15;2.00;;;;;;;7.68;67.71;100280.88;5067526;28;20028;-83
2021/05/05 04:54:58;;;;;;;13.80;2.60;;;;;;;7.73;66.32;100289.56;5065508;28;20547;-83
2021/05/05 04:57:24;;;;;;;7.55;2.03;;;;;;;7.68;66.47;100270.31;5068724;28;20028;-83
2021/05/05 04:59:50;;;;;;;12.80;2.58;;;;;;;7.66;65.67;100277.38;5067883;28;20021;-82
2021/05/05 05:02:16;;;;;;;10.57;2.33;;;;;;;7.78;65.17;100273.66;5067438;28;20089;-82
2021/05/05 05:04:44;;;;;;;14.82;3.20;;;;;;;7.65;65.66;100280.94;5070476;28;20031;-82
2021/05/05 05:07:10;;;;;;;12.30;2.08;;;;;;;7.69;65.31;100277.34;5063368;28;20430;-82
2021/05/05 05:09:36;;;;;;;18.17;2.75;;;;;;;7.67;65.74;100289.66;5068489;28;20032;-82
2021/05/05 05:12:03;;;;;;;11.63;2.83;;;;;;;7.61;65.97;100310.88;5066490;28;20052;-83
2021/05/05 05:14:29;;;;;;;18.30;3.92;;;;;;;7.71;66.03;100319.50;5071645;28;20037;-82
2021/05/05 05:16:57;;;;;;;8.27;2.40;;;;;;;7.67;66.83;100310.75;5067422;28;20031;-83
2021/05/05 05:19:24;;;;;;;17.20;2.83;;;;;;;7.73;66.65;100305.38;5068192;28;20028;-81
2021/05/05 05:22:22;;;;;;;18.23;3.10;;;;;;;7.75;66.21;100300.06;5061696;28;20028;-82
2021/05/05 05:24:49;;;;;;;13.50;3.00;;;;;;;7.63;66.25;100298.53;5057936;28;20507;-81
2021/05/05 05:27:15;;;;;;;8.85;2.40;;;;;;;7.77;66.06;100317.63;5065052;28;20045;-82
2021/05/05 05:29:41;;;;;;;16.90;2.85;;;;;;;7.82;66.13;100303.50;5068471;28;20032;-81
2021/05/05 05:32:07;;;;;;;12.05;2.63;;;;;;;7.75;65.91;100314.16;5070999;28;20522;-83
2021/05/05 05:34:34;;;;;;;15.25;3.22;;;;;;;7.67;66.16;100313.41;5063988;28;20055;-83
2021/05/05 05:37:01;;;;;;;15.57;3.35;;;;;;;7.70;66.20;100304.56;5066126;28;20033;-83
2021/05/05 05:39:27;;;;;;;14.20;3.20;;;;;;;7.78;65.95;100307.97;5066673;28;20029;-84
2021/05/05 05:41:53;;;;;;;12.48;3.38;;;;;;;7.93;65.68;100312.09;5065710;28;20103;-83
2021/05/05 05:44:20;;;;;;;14.15;3.85;;;;;;;8.13;64.79;100308.22;5068913;28;20035;-83
2021/05/05 05:46:46;;;;;;;15.07;2.78;;;;;;;8.01;65.62;100320.75;5066148;28;20029;-83
2021/05/05 05:49:12;;;;;;;16.83;2.92;;;;;;;8.08;65.74;100311.81;5069259;28;20375;-83
2021/05/05 05:51:39;;;;;;;16.58;3.38;;;;;;;8.15;65.96;100311.69;5063319;28;20032;-83
2021/05/05 05:54:06;;;;;;;12.02;3.40;;;;;;;7.98;66.69;100319.94;5066038;28;20506;-83
2021/05/05 05:56:32;;;;;;;10.68;3.53;;;;;;;8.30;66.28;100310.53;5065610;28;20064;-84
2021/05/05 05:58:59;;;;;;;19.58;3.78;;;;;;;8.22;66.09;100313.31;5065904;28;20024;-83
2021/05/05 06:01:25;;;;;;;16.27;3.45;;;;;;;8.29;65.75;100320.25;5068172;28;20025;-83
2021/05/05 06:03:52;;;;;;;19.85;4.43;;;;;;;8.38;65.52;100321.81;5065792;28;20031;-84
2021/05/05 06:06:19;;;;;;;20.60;3.90;;;;;;;8.50;65.23;100315.44;5069067;28;20124;-83
2021/05/05 06:08:45;;;;;;;13.55;3.60;;;;;;;8.52;65.20;100326.88;5061941;28;20035;-84
2021/05/05 06:11:11;;;;;;;20.25;3.15;;;;;;;8.60;64.64;100324.94;5066485;28;20043;-84
2021/05/05 06:13:37;;;;;;;20.48;4.35;;;;;;;8.84;64.97;100322.69;5064899;28;20033;-82
2021/05/05 06:16:04;;;;;;;19.38;4.55;;;;;;;8.86;64.73;100321.78;5063853;28;20119;-84
2021/05/05 06:18:30;;;;;;;20.70;4.15;;;;;;;8.96;64.35;100337.41;5063575;28;20036;-84
2021/05/05 06:20:57;;;;;;;20.08;4.75;;;;;;;8.50;65.74;100340.09;5062962;28;20092;-84
2021/05/05 06:23:23;;;;;;;22.83;4.10;;;;;;;8.84;64.28;100368.47;5065392;28;20040;-84
2021/05/05 06:25:49;;;;;;;12.85;3.25;;;;;;;8.63;64.39;100359.22;5064362;28;20043;-83
2021/05/05 06:28:16;;;;;;;10.27;3.00;;;;;;;8.29;65.58;100378.31;5064739;28;20065;-82
2021/05/05 06:30:42;;;;;;;12.82;2.33;;;;;;;8.37;64.82;100370.25;5065761;28;20032;-81
2021/05/05 06:33:08;;;;;;;10.90;2.47;;;;;;;8.33;64.54;100382.63;5063841;28;20039;-82
2021/05/05 06:35:35;;;;;;;9.43;2.03;;;;;;;8.13;65.35;100371.56;5060904;28;20033;-82
2021/05/05 06:38:01;;;;;;;10.68;2.38;;;;;;;8.12;65.05;100380.38;5051636;28;20037;-82
2021/05/05 06:40:27;;;;;;;7.20;2.17;;;;;;;8.17;65.47;100381.16;5051893;28;20083;-81
2021/05/05 06:42:54;;;;;;;9.73;1.80;;;;;;;8.30;65.04;100389.72;5054334;28;20040;-82
2021/05/05 06:45:20;;;;;;;11.35;2.25;;;;;;;8.28;65.27;100388.91;5052204;28;20041;-82
2021/05/05 06:47:47;;;;;;;5.95;2.10;;;;;;;8.24;65.28;100377.53;5067417;28;20025;-82
2021/05/05 06:50:13;;;;;;;10.00;2.20;;;;;;;8.22;65.93;100392.50;5064985;28;20430;-82
2021/05/05 06:52:40;;;;;;;12.20;2.45;;;;;;;8.62;65.19;100391.78;5066093;28;20042;-83
2021/05/05 06:55:07;;;;;;;10.15;1.50;;;;;;;8.70;64.00;100400.44;5062303;28;20031;-82
2021/05/05 06:57:35;;;;;;;7.43;1.80;;;;;;;8.42;64.71;100419.44;5062787;28;20028;-82
2021/05/05 07:00:02;;;;;;;5.60;1.48;;;;;;;8.55;64.37;100422.75;5064375;28;20388;-82
2021/05/05 07:02:28;;;;;;;11.75;2.05;;;;;;;8.51;64.10;100430.72;5066640;28;20082;-82
2021/05/05 07:04:54;;;;;;;12.00;1.60;;;;;;;8.47;64.52;100423.78;5067241;28;20036;-82
2021/05/05 07:07:20;;;;;;;6.30;1.35;;;;;;;8.49;64.80;100437.84;5062557;28;20033;-82
2021/05/05 07:09:48;;;;;;;5.80;1.60;;;;;;;8.68;65.21;100439.22;5051043;28;20029;-82
2021/05/05 07:12:14;;;;;;;7.18;1.70;;;;;;;8.40;64.71;100441.47;5053897;28;20116;-81
2021/05/05 07:14:40;;;;;;;4.93;1.58;;;;;;;8.38;64.83;100453.81;5054813;28;20306;-82
2021/05/05 07:17:06;;;;;;;9.45;1.90;;;;;;;8.25;65.21;100445.25;5054908;28;20539;-81
2021/05/05 07:19:32;;;;;;;10.13;1.58;;;;;;;8.21;64.90;100440.91;5052725;28;20045;-82
2021/05/05 07:21:58;;;;;;;10.98;1.85;;;;;;;8.41;64.42;100436.16;5049959;28;20488;-80
2021/05/05 07:24:25;;;;;;;7.90;1.90;;;;;;;8.45;64.94;100447.53;5053920;28;20029;-82
2021/05/05 07:26:51;;;;;;;10.60;2.25;;;;;;;8.58;64.31;100435.00;5050378;28;20028;-82
2021/05/05 07:29:17;;;;;;;15.32;2.80;;;;;;;8.52;65.32;100435.13;5071051;28;20032;-83
2021/05/05 07:31:43;;;;;;;12.95;2.70;;;;;;;8.68;64.65;100441.00;5070233;28;20029;-82
2021/05/05 07:34:10;;;;;;;11.50;2.65;;;;;;;8.91;64.82;100453.78;5071304;28;20029;-83
2021/05/05 07:36:37;;;;;;;8.38;2.25;;;;;;;9.11;63.74;100447.22;5057999;28;20033;-83
2021/05/05 07:39:18;;;;;;;12.93;2.88;;;;;;;8.84;64.73;100454.78;5067666;28;20446;-82
2021/05/05 07:50:08;;;;;;;8.93;3.05;;;;;;;8.94;65.73;100460.78;5057747;27;20425;-82
2021/05/05 07:52:35;;;;;;;14.10;2.95;;;;;;;8.74;65.80;100476.09;5066115;28;20494;-82
2021/05/05 07:55:02;;;;;;;21.63;3.78;;;;;;;8.68;66.40;100473.56;5058257;28;20115;-82
2021/05/05 07:57:29;;;;;;;12.35;3.28;;;;;;;8.66;66.34;100467.44;5064295;28;20381;-81
2021/05/05 07:59:55;;;;;;;14.90;4.00;;;;;;;8.59;66.00;100465.81;5064033;28;20090;-82
2021/05/05 08:02:21;;;;;;;17.20;3.63;;;;;;;8.49;66.23;100470.38;5063492;28;20029;-81
2021/05/05 08:04:49;;;;;;;18.50;5.30;;;;;;;8.82;65.97;100473.31;5058706;28;20045;-82
2021/05/05 08:07:17;;;;;;;11.75;3.33;;;;;;;8.97;66.23;100477.44;5053623;28;20108;-82
2021/05/05 08:09:44;;;;;;;14.73;2.85;;;;;;;9.19;65.43;100503.44;5059889;28;20144;-83
2021/05/05 08:12:11;;;;;;;15.40;2.47;;;;;;;9.04;64.23;100486.09;5059686;28;20029;-82
2021/05/05 08:14:38;;;;;;;11.18;2.58;;;;;;;9.30;64.24;100479.44;5058389;28;20025;-83
2021/05/05 08:17:05;;;;;;;9.48;2.40;;;;;;;9.58;63.05;100490.28;5066162;28;20028;-83
2021/05/05 08:19:31;;;;;;;9.10;1.60;;;;;;;9.37;62.43;100497.78;5065842;28;20017;-84
2021/05/05 08:21:57;;;;;;;10.65;2.30;;;;;;;9.45;61.82;100488.81;5066653;28;20021;-84
2021/05/05 08:24:24;;;;;;;6.30;2.05;;;;;;;9.58;61.08;100500.00;5064822;28;20024;-83
2021/05/05 08:26:50;;;;;;;12.55;3.03;;;;;;;9.64;60.81;100500.72;5065370;28;20075;-83
2021/05/05 08:29:17;;;;;;;17.83;3.60;;;;;;;9.62;61.12;100507.84;5066228;28;20526;-86
2021/05/05 08:31:43;;;;;;;11.52;3.22;;;;;;;9.97;60.16;100495.59;5066656;28;20105;-85
2021/05/05 08:34:09;;;;;;;14.88;2.50;;;;;;;9.77;60.14;100521.63;5065305;28;20060;-84
2021/05/05 08:36:35;;;;;;;12.40;2.50;;;;;;;9.91;60.57;100514.28;5060243;28;20025;-85
2021/05/05 08:39:02;;;;;;;20.90;3.55;;;;;;;9.97;59.48;100527.38;5065064;28;20028;-83
2021/05/05 08:41:34;;;;;;;14.05;2.65;;;;;;;10.35;58.38;100495.59;5063961;28;20032;-85
2021/05/05 08:44:01;;;;;;;15.27;3.00;;;;;;;10.31;57.54;100491.28;5066736;28;20036;-83
2021/05/05 08:46:27;;;;;;;15.18;2.67;;;;;;;10.36;58.06;100506.16;5065372;28;20025;-89
2021/05/05 08:48:54;;;;;;;11.32;3.38;;;;;;;10.30;58.14;100511.59;5059783;28;20045;-85
2021/05/05 08:51:20;;;;;;;16.08;2.88;;;;;;;10.45;57.39;100510.38;5066620;28;20037;-85
2021/05/05 08:53:46;;;;;;;12.55;3.08;;;;;;;10.97;56.81;100510.81;5067199;28;20029;-84
2021/05/05 08:56:12;;;;;;;14.73;2.55;;;;;;;10.48;57.48;100549.16;5064720;28;20029;-84
2021/05/05 08:58:38;;;;;;;18.90;2.47;;;;;;;10.42;58.34;100530.75;5062182;28;20061;-86
2021/05/05 09:01:07;;;;;;;8.35;1.92;;;;;;;10.27;58.55;100545.22;5056813;28;20036;-92
2021/05/05 09:03:40;;;;;;;6.35;2.28;;;;;;;10.10;59.24;100566.78;5050908;28;20021;-87
2021/05/05 09:06:06;;;;;;;13.50;4.10;;;;;;;10.14;59.82;100555.22;5049548;28;20051;-83
2021/05/05 09:08:35;;;;;;;13.05;2.10;;;;;;;10.22;59.52;100562.97;5051296;28;20065;-84
2021/05/05 09:13:47;;;;;;;11.32;1.80;;;;;;;10.72;57.83;100557.44;5072338;28;20410;-85
2021/05/05 09:16:16;;;;;;;16.40;2.80;;;;;;;10.74;56.76;100552.94;5059205;28;20033;-86
2021/05/05 09:21:42;;;;;;;7.32;1.80;;;;;;;10.69;55.08;100576.91;4932247;27;3945071;-84
2021/05/05 09:24:33;;;;;;;13.02;2.08;;;;;;;11.12;56.05;100586.41;5065954;28;20059;-84
2021/05/05 09:27:06;;;;;;;14.20;3.00;;;;;;;10.88;55.21;100581.75;5062608;28;20032;-85
2021/05/05 09:29:46;;;;;;;18.55;2.65;;;;;;;10.96;54.54;100585.94;5064991;28;20112;-85
2021/05/05 09:32:15;;;;;;;11.88;1.73;;;;;;;10.97;54.05;100592.97;5068087;28;20361;-86
2021/05/05 09:34:42;;;;;;;15.88;2.22;;;;;;;10.84;53.82;100597.72;5066710;28;20456;-86
2021/05/05 09:37:11;;;;;;;8.85;2.30;;;;;;;11.24;54.78;100587.00;5060125;28;20752;-85
2021/05/05 09:39:41;;;;;;;15.93;3.15;;;;;;;11.33;52.99;100607.97;5060048;28;20029;-85
2021/05/05 09:42:28;;;;;;;9.07;2.22;;;;;;;11.50;53.52;100612.81;5045470;28;20059;-86
2021/05/05 09:47:57;;;;;;;16.73;2.97;;;;;;;11.53;51.64;100612.72;5055992;27;837128;-89
2021/05/05 09:56:11;;;;;;;10.00;2.65;;;;;;;11.37;52.65;100646.75;5136340;27;20545;-84
2021/05/05 09:58:42;;;;;;;7.45;2.08;;;;;;;11.72;53.02;100622.84;5123545;27;20024;-85
2021/05/05 10:01:11;;;;;;;17.85;3.00;;;;;;;11.85;52.73;100645.47;5106820;28;20036;-92
2021/05/05 10:03:40;;;;;;;10.07;3.15;;;;;;;11.29;54.90;100646.97;5099742;28;20491;-85
2021/05/05 10:06:31;;;;;;;11.20;2.13;;;;;;;10.75;56.61;100666.00;5093838;28;20361;-86
2021/05/05 10:09:07;;;;;;;12.82;2.38;;;;;;;10.55;58.26;100677.06;5097668;28;20110;-88
2021/05/05 10:11:39;;;;;;;13.55;2.38;;;;;;;10.02;59.30;100676.34;5107955;28;20039;-84
2021/05/05 10:14:08;;;;;;;12.18;2.50;;;;;;;10.03;59.06;100694.00;5093723;28;20028;-85
2021/05/05 10:16:39;;;;;;;10.90;2.13;;;;;;;9.79;60.82;100705.06;5096810;28;20039;-87
2021/05/05 10:19:18;;;;;;;14.25;2.45;;;;;;;9.62;62.32;100695.66;5096460;28;20024;-85
2021/05/05 10:21:56;;;;;;;17.70;2.42;;;;;;;9.48;63.82;100711.78;5092949;28;20040;-89
2021/05/05 10:24:24;;;;;;;9.98;1.85;;;;;;;9.30;64.25;100714.75;5105199;28;20024;-80
2021/05/05 10:26:59;;;;;;;11.90;2.45;;;;;;;9.39;63.72;100699.59;5104460;27;20085;-90
2021/05/05 10:29:36;;;;;;;26.67;9.15;;;;;;;9.38;61.09;100748.09;5093936;28;20026;-88
2021/05/05 10:32:11;;;;;;;13.35;2.42;;;;;;;9.48;61.00;100722.38;5094187;28;20028;-85
2021/05/05 10:34:39;;;;;;;7.50;1.80;;;;;;;9.37;61.50;100740.16;5104067;28;20040;-90
2021/05/05 10:37:06;;;;;;;10.65;1.77;;;;;;;9.23;62.58;100737.75;5111892;27;20446;-85
2021/05/05 10:39:36;;;;;;;10.45;2.78;;;;;;;9.24;62.23;100750.06;5100967;28;20020;-89
2021/05/05 10:44:54;;;;;;;11.80;2.38;;;;;;;8.84;65.27;100787.69;5064015;28;20403;-88
2021/05/05 10:47:27;;;;;;;15.35;2.58;;;;;;;8.87;65.63;100770.00;5062694;28;20035;-90
2021/05/05 10:55:43;;;;;;;15.98;2.25;;;;;;;9.36;64.91;100776.31;4942821;27;3986355;-90
2021/05/05 10:58:17;;;;;;;17.63;2.70;;;;;;;9.45;64.98;100777.94;5079393;28;20021;-91
2021/05/05 11:06:49;;;;;;;14.18;2.92;;;;;;;10.07;63.02;100784.81;5077361;27;21088;-90
2021/05/05 11:11:55;;;;;;;10.57;2.28;;;;;;;10.06;61.80;100787.50;5073185;27;20431;-93
2021/05/05 11:17:14;;;;;;;14.93;2.47;;;;;;;9.79;62.53;100801.16;5071507;27;20395;-91
2021/05/05 11:25:29;;;;;;;16.05;3.20;;;;;;;9.77;62.84;100802.09;5072371;27;20437;-87
2021/05/05 11:27:57;;;;;;;27.02;3.90;;;;;;;9.80;62.33;100796.78;5056129;28;20037;-90
2021/05/05 11:30:47;;;;;;;19.35;3.58;;;;;;;9.73;63.92;100805.69;5051673;28;20075;-88
2021/05/05 11:33:13;;;;;;;13.00;2.67;;;;;;;9.98;62.50;100811.44;5049697;28;20033;-89
2021/05/05 11:35:40;;;;;;;15.90;3.03;;;;;;;10.40;61.55;100813.34;5051987;28;20029;-85
2021/05/05 11:38:24;;;;;;;49.10;17.65;;;;;;;10.32;58.93;100837.31;5049549;28;20033;-85
2021/05/05 11:40:52;;;;;;;14.48;3.83;;;;;;;10.25;60.26;100851.56;5049640;28;20029;-88
2021/05/05 11:43:21;;;;;;;10.40;3.28;;;;;;;9.81;61.70;100847.00;5050257;28;20491;-88
2021/05/05 11:45:49;;;;;;;10.82;2.60;;;;;;;9.36;62.50;100862.72;5057332;28;20052;-88
2021/05/05 11:48:25;;;;;;;15.80;2.65;;;;;;;9.39;63.34;100852.97;5049459;28;20040;-86
2021/05/05 11:50:51;;;;;;;10.00;2.83;;;;;;;9.57;62.16;100863.28;5054510;28;20498;-89
2021/05/05 11:53:29;;;;;;;22.15;2.95;;;;;;;9.26;64.87;100875.19;5049997;28;20111;-82
2021/05/05 11:55:56;;;;;;;16.77;3.30;;;;;;;9.46;64.68;100871.38;5063123;28;20121;-85
2021/05/05 11:58:24;;;;;;;19.20;4.13;;;;;;;9.47;66.58;100866.06;5047209;28;20392;-83
2021/05/05 12:00:54;;;;;;;15.35;3.47;;;;;;;9.81;65.71;100867.31;5057841;28;20052;-85
2021/05/05 12:03:25;;;;;;;16.52;3.38;;;;;;;10.07;63.44;100885.41;5053131;28;20041;-87
2021/05/05 12:05:54;;;;;;;15.40;3.10;;;;;;;9.86;61.82;100876.91;5053926;28;20784;-81
2021/05/05 12:08:24;;;;;;;12.02;3.35;;;;;;;9.97;60.36;100884.69;5053645;28;20043;-83
2021/05/05 12:13:41;;;;;;;13.98;3.08;;;;;;;10.58;60.42;100884.50;5049186;28;20414;-87
2021/05/05 12:18:48;;;;;;;20.55;3.42;;;;;;;10.29;58.94;100899.16;5059430;28;21005;-87
2021/05/05 12:21:17;;;;;;;14.85;2.67;;;;;;;10.68;58.60;100904.63;5036661;28;20072;-88
2021/05/05 12:23:46;;;;;;;14.07;3.10;;;;;;;10.66;57.57;100905.56;5050714;28;20100;-88